MMTP/TAP METAR and TAF weather

Enter ICAO airport designator
Station Type Date Time Source
MMTP METAR 2020/02/29 02:40 UTC NOAA

MMTP 290240Z 00000KT 10SM SCT140 26/21 A2996 RMK SLP170 52019 906 8/050 HZY


Station Type Date Time Source
MMTP Decoded METAR 2020/02/29 02:40 UTC NOAA

Tapachula , Mexico (MMTP) 14-47N 092-23W
Feb 28, 2020 - 09:40 PM EST / 2020.02.29 0240 UTC
Wind: Calm:0
Visibility: 10 mile(s):0
Sky conditions: partly cloudy
Temperature: 78 F (26 C)
Dew Point: 69 F (21 C)
Relative Humidity: 73%
Pressure (altimeter): 29.96 in. Hg (1014 hPa)
Pressure tendency: 0.06 inches (1.9 hPa) higher than three hours ago
ob: MMTP 290240Z 00000KT 10SM SCT140 26/21 A2996 RMK SLP170 52019 906 8/050 HZY
cycle: 2

Station Type Date Time Source
MMTP TAF 2020/02/28 18:10 UTC NOAA

TAF MMTP 281702Z 2818/2924 26012KT P6SM SCT030
FM290300 00000KT P6SM SKC
FM292000 26010KT P6SM SCT025

Example: see airport list